createdAt,value
2018-02-19T00:00:36.777Z,66.40
2018-02-19T00:03:07.100Z,67.10
2018-02-19T00:05:37.625Z,67.80
2018-02-19T00:08:07.894Z,68.10
2018-02-19T00:10:39.132Z,67.90
2018-02-19T00:13:09.859Z,67.90
2018-02-19T00:15:40.910Z,67.30
2018-02-19T00:18:11.671Z,67.30
2018-02-19T00:20:41.897Z,67.50
2018-02-19T00:23:12.108Z,67.30
2018-02-19T00:25:44.669Z,66.60
2018-02-19T00:28:15.749Z,66.90
2018-02-19T00:30:47.183Z,67.10
2018-02-19T00:33:17.691Z,67.10
2018-02-19T00:35:48.591Z,66.90
2018-02-19T00:38:21.313Z,66.90
2018-02-19T00:40:52.377Z,66.90
2018-02-19T00:43:22.627Z,66.30
2018-02-19T00:45:53.292Z,66.90
2018-02-19T00:48:25.679Z,66.60
2018-02-19T00:50:56.571Z,66.80
2018-02-19T00:53:27.157Z,66.80
2018-02-19T00:55:58.296Z,66.80
2018-02-19T00:58:29.214Z,67.00
2018-02-19T01:00:59.947Z,66.90
2018-02-19T01:03:30.025Z,67.10
2018-02-19T01:06:00.297Z,67.30
2018-02-19T01:08:30.427Z,67.50
2018-02-19T01:11:01.907Z,67.70
2018-02-19T01:13:32.442Z,67.60
2018-02-19T01:16:02.681Z,67.70
2018-02-19T01:18:32.904Z,67.70
2018-02-19T01:21:03.588Z,67.80
2018-02-19T01:23:34.564Z,68.20
2018-02-19T01:26:04.853Z,68.20
2018-02-19T01:28:36.306Z,68.50
2018-02-19T01:31:06.548Z,68.40
2018-02-19T01:33:36.801Z,68.40
2018-02-19T01:36:06.935Z,68.70
2018-02-19T01:38:38.355Z,68.50
2018-02-19T01:41:08.677Z,68.60
2018-02-19T01:43:39.319Z,68.70
2018-02-19T01:46:09.519Z,68.90
2018-02-19T01:48:39.944Z,68.90
2018-02-19T01:51:10.219Z,68.80
2018-02-19T01:53:40.567Z,68.80
2018-02-19T01:56:11.670Z,68.90
2018-02-19T01:58:41.860Z,68.90
2018-02-19T02:01:12.164Z,67.40
2018-02-19T02:03:43.429Z,68.70
2018-02-19T02:06:13.749Z,68.60
2018-02-19T02:08:44.039Z,68.90
2018-02-19T02:11:15.650Z,68.90
2018-02-19T02:13:45.873Z,68.90
2018-02-19T02:16:16.451Z,68.80
2018-02-19T02:18:46.701Z,69.00
2018-02-19T02:21:20.862Z,68.90
2018-02-19T02:23:51.172Z,69.00
2018-02-19T02:26:21.898Z,69.00
2018-02-19T02:28:52.152Z,68.80
2018-02-19T02:31:22.460Z,68.80
2018-02-19T02:33:53.009Z,68.80
2018-02-19T02:36:23.269Z,68.70
2018-02-19T02:38:53.741Z,68.60
2018-02-19T02:41:24.069Z,68.50
2018-02-19T02:43:54.329Z,68.90
2018-02-19T02:46:25.355Z,68.20
2018-02-19T02:48:56.396Z,68.00
2018-02-19T02:51:26.752Z,68.00
2018-02-19T02:53:57.065Z,67.90
2018-02-19T02:56:27.961Z,68.00
2018-02-19T02:58:58.189Z,68.00
2018-02-19T03:01:28.269Z,68.00
2018-02-19T03:03:59.090Z,67.80
2018-02-19T03:06:29.308Z,67.80
2018-02-19T03:09:00.702Z,67.90
2018-02-19T03:11:30.882Z,67.90
2018-02-19T03:14:01.218Z,67.90
2018-02-19T03:16:31.766Z,67.90
2018-02-19T03:19:01.965Z,67.80
2018-02-19T03:21:32.522Z,68.80
2018-02-19T03:24:03.797Z,67.90
2018-02-19T03:26:34.263Z,68.00
2018-02-19T03:29:05.078Z,67.90
2018-02-19T03:31:36.149Z,67.80
2018-02-19T03:34:06.554Z,67.50
2018-02-19T03:36:37.791Z,67.80
2018-02-19T03:39:08.301Z,67.60
2018-02-19T03:41:38.602Z,67.80
2018-02-19T03:44:08.961Z,67.80
2018-02-19T03:46:39.469Z,67.90
2018-02-19T03:49:09.792Z,67.90
2018-02-19T03:51:40.267Z,67.80
2018-02-19T03:54:11.936Z,67.70
2018-02-19T03:56:42.334Z,67.60
2018-02-19T03:59:13.339Z,67.50
2018-02-19T04:01:43.522Z,67.60
2018-02-19T04:04:13.912Z,67.60
2018-02-19T04:06:44.608Z,67.60
2018-02-19T04:09:14.828Z,67.40
2018-02-19T04:11:45.077Z,67.50
2018-02-19T04:14:15.449Z,67.40
2018-02-19T04:16:45.529Z,67.40
2018-02-19T04:19:16.125Z,67.80
2018-02-19T04:21:46.498Z,67.10
2018-02-19T04:24:17.543Z,67.70
2018-02-19T04:26:48.771Z,68.00
2018-02-19T04:29:18.899Z,67.90
2018-02-19T04:31:49.160Z,67.80
2018-02-19T04:34:19.703Z,67.70
2018-02-19T04:36:50.092Z,67.60
2018-02-19T04:39:20.256Z,67.70
2018-02-19T04:41:50.804Z,67.90
2018-02-19T04:44:21.915Z,68.10
2018-02-19T04:46:52.375Z,68.10
2018-02-19T04:49:22.913Z,67.90
2018-02-19T04:51:54.764Z,68.30
2018-02-19T04:54:25.866Z,68.40
2018-02-19T04:56:56.584Z,68.40
2018-02-19T04:59:30.303Z,68.30
2018-02-19T05:02:01.012Z,68.20
2018-02-19T05:04:32.141Z,68.50
2018-02-19T05:07:02.324Z,68.50
2018-02-19T05:09:32.802Z,68.70
2018-02-19T05:12:03.845Z,68.70
2018-02-19T05:14:35.267Z,68.90
2018-02-19T05:17:05.840Z,68.90
2018-02-19T05:19:36.373Z,69.10
2018-02-19T05:22:06.695Z,69.20
2018-02-19T05:24:38.365Z,69.30
2018-02-19T05:27:08.668Z,69.70
2018-02-19T05:29:38.872Z,69.30
2018-02-19T05:32:09.594Z,69.40
2018-02-19T05:34:39.913Z,69.30
2018-02-19T05:37:11.102Z,69.30
2018-02-19T05:39:41.243Z,69.30
2018-02-19T05:42:12.387Z,68.90
2018-02-19T05:44:42.720Z,68.90
2018-02-19T05:47:13.449Z,68.30
2018-02-19T05:49:43.525Z,68.90
2018-02-19T05:52:14.530Z,68.90
2018-02-19T05:54:44.821Z,69.10
2018-02-19T05:57:15.938Z,68.90
2018-02-19T05:59:47.096Z,69.10
2018-02-19T06:02:17.875Z,69.00
2018-02-19T06:04:48.349Z,68.90
2018-02-19T06:07:19.333Z,69.10
2018-02-19T06:09:49.555Z,69.10
2018-02-19T06:12:20.348Z,69.20
2018-02-19T06:14:51.481Z,69.70
2018-02-19T06:17:22.781Z,69.10
2018-02-19T06:19:53.443Z,69.10
2018-02-19T06:25:09.601Z,68.80
2018-02-19T06:27:41.499Z,68.70
2018-02-19T06:30:15.977Z,68.70
2018-02-19T06:32:48.325Z,68.40
2018-02-19T06:35:19.394Z,68.30
2018-02-19T06:37:50.015Z,68.20
2018-02-19T06:40:21.128Z,68.30
2018-02-19T06:42:53.423Z,68.30
2018-02-19T06:45:24.512Z,68.00
2018-02-19T06:47:54.942Z,68.10
2018-02-19T06:50:25.498Z,68.10
2018-02-19T06:52:56.817Z,68.20
2018-02-19T06:55:28.961Z,68.70
2018-02-19T06:58:01.727Z,68.00
2018-02-19T07:00:32.184Z,68.00
2018-02-19T07:03:02.631Z,68.00
2018-02-19T07:05:35.892Z,67.80
2018-02-19T07:08:08.522Z,67.70
2018-02-19T07:10:46.205Z,67.60
2018-02-19T07:13:21.223Z,67.50
2018-02-19T07:15:51.920Z,67.30
2018-02-19T07:18:22.894Z,67.10
2018-02-19T07:20:53.984Z,67.30
2018-02-19T07:23:25.593Z,67.50
2018-02-19T07:25:56.911Z,67.20
2018-02-19T07:28:28.630Z,67.30
2018-02-19T07:31:00.391Z,67.40
2018-02-19T07:33:30.997Z,67.40
2018-02-19T07:36:01.933Z,67.30
2018-02-19T07:38:32.864Z,67.10
2018-02-19T07:41:04.742Z,66.70
2018-02-19T07:43:35.187Z,66.10
2018-02-19T07:46:06.570Z,66.20
2018-02-19T07:48:37.288Z,66.40
2018-02-19T07:51:08.088Z,65.80
2018-02-19T07:53:38.510Z,66.00
2018-02-19T07:56:09.792Z,66.00
2018-02-19T07:58:40.951Z,65.70
2018-02-19T08:01:11.885Z,65.80
2018-02-19T08:03:45.506Z,65.70
2018-02-19T08:06:20.058Z,65.70
2018-02-19T08:08:51.154Z,65.90
2018-02-19T08:11:21.560Z,65.50
2018-02-19T08:13:59.559Z,65.20
2018-02-19T08:16:39.129Z,65.20
2018-02-19T08:19:09.410Z,65.10
2018-02-19T08:21:40.405Z,65.90
2018-02-19T08:24:10.718Z,65.00
2018-02-19T08:26:41.053Z,64.90
2018-02-19T08:29:13.889Z,64.80
2018-02-19T08:31:45.712Z,64.70
2018-02-19T08:34:16.140Z,64.40
2018-02-19T08:36:46.760Z,64.20
2018-02-19T08:39:17.028Z,64.20
2018-02-19T08:41:52.188Z,64.10
2018-02-19T08:44:23.420Z,63.70
2018-02-19T08:46:57.123Z,63.30
2018-02-19T08:49:29.231Z,63.40
2018-02-19T08:52:03.109Z,63.40
2018-02-19T08:54:36.106Z,63.30
2018-02-19T08:57:08.911Z,63.30
2018-02-19T08:59:39.795Z,63.00
2018-02-19T09:02:10.202Z,62.80
2018-02-19T09:04:40.927Z,62.70
2018-02-19T09:07:11.261Z,62.60
2018-02-19T09:09:44.342Z,62.30
2018-02-19T09:12:15.360Z,62.10
2018-02-19T09:14:45.942Z,61.80
2018-02-19T09:17:17.422Z,61.40
2018-02-19T09:19:51.660Z,61.40
2018-02-19T09:22:22.366Z,61.00
2018-02-19T09:24:53.076Z,61.20
2018-02-19T09:27:25.596Z,61.40
2018-02-19T09:29:57.909Z,61.00
2018-02-19T09:32:29.701Z,61.10
2018-02-19T09:35:13.482Z,60.70
2018-02-19T09:37:47.733Z,61.40
2018-02-19T09:40:24.268Z,60.20
2018-02-19T09:42:58.377Z,60.00
2018-02-19T09:45:32.889Z,60.30
2018-02-19T09:48:03.507Z,60.20
2018-02-19T09:50:33.927Z,60.20
2018-02-19T09:53:07.452Z,60.20
2018-02-19T09:55:42.229Z,60.20
2018-02-19T09:58:13.458Z,60.00
2018-02-19T10:00:43.899Z,60.00
2018-02-19T10:03:16.324Z,60.00
2018-02-19T10:05:49.137Z,59.90
2018-02-19T10:08:26.290Z,59.80
2018-02-19T10:10:57.775Z,59.80
2018-02-19T10:13:29.314Z,59.80
2018-02-19T10:16:01.009Z,59.80
2018-02-19T10:18:34.224Z,59.50
2018-02-19T10:21:06.042Z,59.50
2018-02-19T10:23:38.613Z,59.40
2018-02-19T10:26:11.163Z,59.30
2018-02-19T10:28:44.178Z,58.90
2018-02-19T10:31:14.701Z,59.20
2018-02-19T10:33:45.164Z,59.10
2018-02-19T10:36:16.387Z,59.00
2018-02-19T10:38:48.570Z,59.10
2018-02-19T10:41:20.698Z,58.90
2018-02-19T10:43:51.744Z,58.80
2018-02-19T10:46:25.237Z,59.60
2018-02-19T10:48:56.146Z,58.40
2018-02-19T10:51:26.375Z,58.30
2018-02-19T10:54:09.356Z,58.10
2018-02-19T10:56:43.803Z,58.00
2018-02-19T10:59:14.721Z,58.00
2018-02-19T11:01:46.348Z,58.10
2018-02-19T11:04:18.838Z,57.70
2018-02-19T11:06:49.640Z,57.70
2018-02-19T11:09:20.071Z,57.50
2018-02-19T11:11:50.948Z,57.60
2018-02-19T11:14:22.008Z,57.80
2018-02-19T11:16:53.071Z,57.30
2018-02-19T11:19:23.605Z,57.20
2018-02-19T11:21:54.548Z,57.30
2018-02-19T11:25:29.870Z,56.80
2018-02-19T11:28:00.450Z,56.90
2018-02-19T11:30:38.017Z,56.70
2018-02-19T11:33:08.780Z,56.60
2018-02-19T11:35:53.267Z,56.60
2018-02-19T11:38:25.333Z,56.50
2018-02-19T11:41:10.216Z,56.70
2018-02-19T11:43:41.032Z,56.50
2018-02-19T11:46:12.460Z,56.40
2018-02-19T11:48:43.037Z,56.30
2018-02-19T11:51:14.468Z,56.40
2018-02-19T11:53:47.307Z,56.10
2018-02-19T11:56:17.902Z,56.10
2018-02-19T11:59:15.149Z,56.60
2018-02-19T12:02:17.837Z,56.50
2018-02-19T12:05:06.425Z,56.70
2018-02-19T12:07:37.355Z,56.70
2018-02-19T12:10:22.052Z,57.00
2018-02-19T12:12:52.540Z,56.80
2018-02-19T12:15:24.981Z,57.00
2018-02-19T12:17:56.123Z,56.50
2018-02-19T12:20:41.794Z,56.50
2018-02-19T12:23:24.839Z,56.40
2018-02-19T12:26:02.428Z,56.30
2018-02-19T12:28:34.940Z,56.70
2018-02-19T12:31:09.245Z,56.00
2018-02-19T12:33:46.066Z,56.00
2018-02-19T12:36:17.389Z,56.00
2018-02-19T12:38:49.739Z,56.10
2018-02-19T12:41:31.636Z,56.60
2018-02-19T12:44:02.229Z,56.40
2018-02-19T12:46:34.304Z,56.00
2018-02-19T12:49:06.938Z,55.80
2018-02-19T12:51:37.722Z,55.80
2018-02-19T12:54:08.792Z,55.90
2018-02-19T12:56:39.299Z,55.90
2018-02-19T12:59:10.162Z,55.80
2018-02-19T13:01:43.794Z,55.60
2018-02-19T13:04:21.598Z,55.10
2018-02-19T13:06:52.054Z,55.30
2018-02-19T13:09:24.589Z,55.30
2018-02-19T13:12:02.124Z,55.30
2018-02-19T13:14:34.187Z,55.40
2018-02-19T13:17:32.265Z,55.30
2018-02-19T13:20:12.175Z,55.30
2018-02-19T13:22:46.496Z,55.30
2018-02-19T13:25:17.824Z,55.40
2018-02-19T13:27:50.624Z,55.00
2018-02-19T13:33:21.752Z,54.60
2018-02-19T13:35:56.723Z,54.50
2018-02-19T13:38:27.557Z,54.10
2018-02-19T13:40:59.409Z,54.00
2018-02-19T13:43:34.143Z,54.80
2018-02-19T13:46:10.326Z,54.00
2018-02-19T13:48:42.897Z,53.60
2018-02-19T13:51:14.445Z,53.00
2018-02-19T13:53:44.930Z,53.30
2018-02-19T13:56:15.554Z,52.50
2018-02-19T13:58:49.095Z,53.00
2018-02-19T14:01:19.520Z,53.20
2018-02-19T14:03:53.832Z,53.20
2018-02-19T14:06:27.674Z,53.00
2018-02-19T14:08:59.812Z,53.40
2018-02-19T14:11:38.504Z,52.30
2018-02-19T14:14:12.893Z,52.40
2018-02-19T14:16:45.929Z,52.40
2018-02-19T14:19:19.056Z,52.40
2018-02-19T14:21:54.005Z,51.90
2018-02-19T14:24:28.441Z,51.50
2018-02-19T14:27:00.822Z,51.50
2018-02-19T14:29:32.845Z,51.00
2018-02-19T14:32:05.865Z,51.10
2018-02-19T14:34:40.601Z,51.00
2018-02-19T14:37:13.454Z,51.10
2018-02-19T14:39:46.593Z,50.40
2018-02-19T14:42:17.343Z,50.40
2018-02-19T14:45:21.349Z,50.40
2018-02-19T14:48:14.122Z,50.70
2018-02-19T14:51:00.792Z,49.60
2018-02-19T14:53:35.797Z,49.50
2018-02-19T14:56:07.609Z,49.40
2018-02-19T14:58:51.510Z,49.40
2018-02-19T15:01:32.533Z,49.90
2018-02-19T15:09:36.116Z,49.80
2018-02-19T15:12:08.103Z,48.80
2018-02-19T15:14:38.604Z,48.80
2018-02-19T15:17:10.929Z,48.80
2018-02-19T15:19:41.394Z,48.70
2018-02-19T15:22:14.139Z,49.20
2018-02-19T15:24:45.666Z,49.20
2018-02-19T15:27:16.069Z,49.10
2018-02-19T15:29:48.392Z,48.70
2018-02-19T15:32:31.593Z,48.80
2018-02-19T15:35:06.178Z,49.20
2018-02-19T15:37:38.940Z,49.20
2018-02-19T15:40:09.857Z,49.30
2018-02-19T15:42:52.794Z,49.60
2018-02-19T15:45:26.757Z,49.40
2018-02-19T15:47:58.574Z,49.00
2018-02-19T15:50:29.566Z,49.30
2018-02-19T15:53:14.657Z,49.30
2018-02-19T15:55:46.818Z,49.30
2018-02-19T15:58:17.364Z,49.70
2018-02-19T16:00:47.575Z,50.00
2018-02-19T16:03:19.189Z,49.80
2018-02-19T16:05:50.335Z,50.20
2018-02-19T16:08:21.299Z,50.30
2018-02-19T16:11:04.940Z,50.10
2018-02-19T16:13:35.987Z,50.00
2018-02-19T16:16:07.305Z,49.80
2018-02-19T16:18:37.520Z,50.00
2018-02-19T16:21:13.209Z,50.40
2018-02-19T16:23:45.313Z,50.40
2018-02-19T16:26:17.844Z,50.60
2018-02-19T16:28:48.213Z,51.70
2018-02-19T16:31:19.374Z,51.30
2018-02-19T16:33:51.817Z,51.80
2018-02-19T16:36:22.982Z,51.80
2018-02-19T16:38:53.932Z,52.00
2018-02-19T16:41:26.922Z,52.10
2018-02-19T16:43:57.883Z,52.10
2018-02-19T16:46:28.297Z,52.10
2018-02-19T16:49:13.951Z,52.60
2018-02-19T16:51:46.561Z,52.40
2018-02-19T16:54:18.200Z,52.80
2018-02-19T16:56:51.126Z,53.10
2018-02-19T16:59:21.521Z,53.40
2018-02-19T17:01:55.925Z,53.50
2018-02-19T17:04:26.933Z,53.70
2018-02-19T17:07:00.892Z,53.80
2018-02-19T17:09:31.590Z,53.00
2018-02-19T17:12:02.353Z,53.90
2018-02-19T17:14:32.791Z,53.90
2018-02-19T17:17:03.130Z,54.00
2018-02-19T17:19:33.407Z,54.00
2018-02-19T17:22:04.664Z,54.00
2018-02-19T17:24:36.787Z,54.10
2018-02-19T17:27:11.097Z,54.20
2018-02-19T17:29:48.820Z,54.20
2018-02-19T17:32:19.485Z,54.20
2018-02-19T17:34:53.815Z,54.50
2018-02-19T17:37:24.559Z,54.70
2018-02-19T17:39:55.483Z,55.20
2018-02-19T17:42:31.528Z,55.20
2018-02-19T17:45:04.235Z,55.40
2018-02-19T17:47:47.313Z,55.80
2018-02-19T17:50:18.427Z,55.60
2018-02-19T17:52:48.702Z,55.70
2018-02-19T17:55:19.373Z,56.20
2018-02-19T17:57:50.569Z,55.70
2018-02-19T18:00:23.007Z,55.60
2018-02-19T18:02:53.272Z,55.60
2018-02-19T18:05:24.497Z,55.20
2018-02-19T18:07:55.969Z,55.40
2018-02-19T18:10:26.903Z,55.50
2018-02-19T18:12:57.902Z,54.20
2018-02-19T18:15:29.560Z,55.50
2018-02-19T18:18:00.105Z,55.80
2018-02-19T18:20:31.659Z,55.80
2018-02-19T18:23:01.996Z,55.80
2018-02-19T18:25:33.368Z,55.90
2018-02-19T18:28:06.177Z,55.70
2018-02-19T18:30:38.114Z,55.70
2018-02-19T18:33:09.154Z,56.00
2018-02-19T18:35:40.354Z,55.90
2018-02-19T18:38:10.608Z,55.90
2018-02-19T18:40:42.121Z,56.10
2018-02-19T18:43:14.125Z,56.10
2018-02-19T18:45:45.429Z,56.10
2018-02-19T18:48:15.805Z,56.00
2018-02-19T18:50:47.992Z,56.90
2018-02-19T18:53:18.722Z,56.90
2018-02-19T18:55:49.035Z,57.00
2018-02-19T18:58:19.998Z,56.90
2018-02-19T19:00:50.134Z,56.90
2018-02-19T19:03:20.347Z,57.00
2018-02-19T19:05:51.389Z,57.00
2018-02-19T19:10:48.370Z,56.90
2018-02-19T19:13:20.649Z,57.00
2018-02-19T19:15:51.756Z,57.30
2018-02-19T19:18:22.007Z,57.20
2018-02-19T19:20:53.574Z,57.20
2018-02-19T19:23:28.074Z,57.20
2018-02-19T19:25:58.381Z,57.20
2018-02-19T19:28:28.981Z,57.10
2018-02-19T19:30:59.964Z,57.20
2018-02-19T19:33:30.479Z,57.20
2018-02-19T19:36:02.121Z,57.50
2018-02-19T19:38:33.009Z,57.40
2018-02-19T19:41:04.158Z,57.60
2018-02-19T19:43:38.682Z,57.40
2018-02-19T19:46:09.637Z,57.70
2018-02-19T19:48:39.813Z,57.60
2018-02-19T19:51:10.403Z,57.70
2018-02-19T19:53:42.168Z,57.80
2018-02-19T19:56:13.719Z,57.60
2018-02-19T19:58:44.646Z,57.70
2018-02-19T20:01:18.605Z,57.40
2018-02-19T20:03:49.129Z,57.60
2018-02-19T20:06:19.446Z,57.40
2018-02-19T20:08:50.015Z,56.40
2018-02-19T20:11:20.967Z,57.60
2018-02-19T20:13:53.095Z,57.90
2018-02-19T20:16:24.284Z,57.90
2018-02-19T20:18:54.397Z,58.00
2018-02-19T20:21:24.704Z,58.00
2018-02-19T20:23:55.377Z,58.00
2018-02-19T20:26:26.248Z,58.00
2018-02-19T20:28:56.505Z,58.00
2018-02-19T20:31:28.586Z,58.10
2018-02-19T20:33:58.737Z,58.40
2018-02-19T20:36:29.327Z,58.40
2018-02-19T20:39:01.820Z,58.20
2018-02-19T20:41:32.953Z,58.10
2018-02-19T20:44:03.143Z,58.00
2018-02-19T20:46:34.822Z,58.00
2018-02-19T20:49:05.189Z,58.00
2018-02-19T20:51:35.498Z,58.00
2018-02-19T20:54:06.909Z,56.80
2018-02-19T20:56:37.245Z,57.80
2018-02-19T20:59:07.510Z,57.60
2018-02-19T21:01:38.299Z,57.80
2018-02-19T21:04:09.356Z,57.80
2018-02-19T21:06:39.642Z,57.80
2018-02-19T21:09:09.910Z,57.80
2018-02-19T21:11:40.244Z,57.70
2018-02-19T21:14:11.260Z,57.90
2018-02-19T21:16:44.153Z,57.80
2018-02-19T21:19:15.898Z,58.00
2018-02-19T21:21:46.448Z,58.20
2018-02-19T21:24:17.541Z,58.10
2018-02-19T21:26:47.821Z,58.10
2018-02-19T21:29:20.349Z,58.30
2018-02-19T21:31:51.461Z,58.40
2018-02-19T21:34:21.851Z,58.50
2018-02-19T21:36:53.500Z,58.40
2018-02-19T21:39:23.831Z,58.40
2018-02-19T21:41:54.646Z,58.50
2018-02-19T21:44:26.849Z,58.90
2018-02-19T21:46:57.769Z,59.10
2018-02-19T21:49:28.343Z,59.20
2018-02-19T21:51:58.517Z,58.80
2018-02-19T21:54:29.807Z,59.10
2018-02-19T21:57:00.032Z,59.10
2018-02-19T21:59:30.352Z,59.20
2018-02-19T22:02:00.712Z,59.10
2018-02-19T22:04:31.849Z,59.30
2018-02-19T22:07:02.376Z,59.30
2018-02-19T22:09:32.973Z,59.50
2018-02-19T22:12:03.275Z,59.20
2018-02-19T22:14:33.545Z,59.70
2018-02-19T22:17:03.800Z,59.60
2018-02-19T22:19:34.392Z,59.50
2018-02-19T22:22:04.935Z,59.70
2018-02-19T22:24:35.065Z,59.90
2018-02-19T22:27:07.204Z,60.00
2018-02-19T22:29:41.879Z,60.00
2018-02-19T22:32:12.128Z,60.00
2018-02-19T22:34:43.233Z,60.10
2018-02-19T22:37:13.500Z,60.10
2018-02-19T22:39:48.228Z,60.30
2018-02-19T22:42:19.184Z,60.20
2018-02-19T22:44:51.185Z,60.10
2018-02-19T22:47:22.913Z,60.30
2018-02-19T22:49:54.627Z,60.10
2018-02-19T22:52:25.659Z,60.00
2018-02-19T22:54:59.195Z,60.10
2018-02-19T22:57:29.376Z,60.10
2018-02-19T22:59:59.888Z,60.10
2018-02-19T23:02:30.827Z,60.00
2018-02-19T23:05:01.441Z,60.30
2018-02-19T23:10:14.833Z,60.30
2018-02-19T23:12:45.161Z,60.60
2018-02-19T23:15:16.634Z,61.10
2018-02-19T23:17:47.501Z,60.80
2018-02-19T23:20:17.982Z,60.80
2018-02-19T23:22:52.957Z,61.30
2018-02-19T23:25:23.770Z,61.30
2018-02-19T23:27:54.131Z,61.40
2018-02-19T23:30:25.693Z,61.40
2018-02-19T23:32:56.023Z,61.50
2018-02-19T23:35:27.637Z,61.70
2018-02-19T23:37:58.193Z,61.70
2018-02-19T23:40:28.478Z,61.70
2018-02-19T23:42:58.761Z,61.90
2018-02-19T23:45:29.543Z,63.40
2018-02-19T23:47:59.818Z,61.90
2018-02-19T23:50:30.125Z,62.80
2018-02-19T23:53:00.859Z,62.40
2018-02-19T23:55:31.022Z,62.60
2018-02-19T23:58:02.112Z,63.00
